Time;durP1;ratioP1;P1;durP2;ratioP2;P2;SDS_P1;SDS_P2;PMS_P1;PMS_P2;Temp;Humidity;BMP_temperature;BMP_pressure;BME280_temperature;BME280_humidity;BME280_pressure;Samples;Min_cycle;Max_cycle;Signal;HPM_P1;HPM_P2
2023/10/22 00:02:10;;;;;;;1999.90;999.90;;;13.20;99.90;;;;;;5045826;28;20116;-66
2023/10/22 00:04:38;;;;;;;1999.90;999.90;;;13.10;99.90;;;;;;5047619;28;20416;-66
2023/10/22 00:07:04;;;;;;;1999.90;999.90;;;13.10;99.90;;;;;;5051426;28;20045;-66
2023/10/22 00:09:29;;;;;;;1999.90;999.90;;;13.10;99.90;;;;;;5042439;28;20059;-66
2023/10/22 00:11:55;;;;;;;1999.90;999.90;;;13.10;99.90;;;;;;5043593;28;20041;-66
2023/10/22 00:14:20;;;;;;;1999.90;999.90;;;13.10;99.90;;;;;;5031737;28;20127;-66
2023/10/22 00:16:46;;;;;;;1999.90;999.90;;;13.20;99.90;;;;;;5040032;28;20370;-66
2023/10/22 00:19:11;;;;;;;1999.90;999.90;;;13.20;99.90;;;;;;5047789;28;20045;-66
2023/10/22 00:21:37;;;;;;;1999.90;999.90;;;13.30;99.90;;;;;;5047543;28;20037;-66
2023/10/22 00:24:03;;;;;;;1999.90;999.90;;;13.30;99.90;;;;;;5048567;28;20184;-67
2023/10/22 00:26:28;;;;;;;1999.90;999.90;;;13.30;99.90;;;;;;5052238;28;20045;-66
2023/10/22 00:28:54;;;;;;;1999.90;999.90;;;13.30;99.90;;;;;;5040264;28;20125;-66
2023/10/22 00:31:20;;;;;;;1999.90;999.90;;;13.30;99.90;;;;;;5051055;28;20051;-66
2023/10/22 00:33:45;;;;;;;1999.90;999.90;;;13.40;99.90;;;;;;5033513;28;20190;-66
2023/10/22 00:36:11;;;;;;;1999.90;999.90;;;13.30;99.90;;;;;;5045068;28;20107;-67
2023/10/22 00:38:37;;;;;;;1999.90;999.90;;;13.30;99.90;;;;;;5033265;28;20040;-66
2023/10/22 00:41:02;;;;;;;1999.90;999.90;;;13.30;99.90;;;;;;5046063;28;20053;-66
2023/10/22 00:43:28;;;;;;;1999.90;999.90;;;13.30;99.90;;;;;;5036479;28;20071;-66
2023/10/22 00:45:55;;;;;;;1999.90;999.90;;;13.30;99.90;;;;;;5044545;28;20032;-66
2023/10/22 00:48:21;;;;;;;1999.90;999.90;;;13.30;99.90;;;;;;5049530;28;20045;-66
2023/10/22 00:50:47;;;;;;;1999.90;999.90;;;13.30;99.90;;;;;;5048482;28;20041;-66
2023/10/22 00:53:16;;;;;;;1999.90;999.90;;;13.40;99.90;;;;;;5029620;28;20049;-66
2023/10/22 00:55:45;;;;;;;1999.90;999.90;;;13.30;99.90;;;;;;5038418;28;20041;-67
2023/10/22 00:58:12;;;;;;;1999.90;999.90;;;13.30;99.90;;;;;;5054164;28;20042;-67
2023/10/22 01:00:39;;;;;;;1999.90;999.90;;;13.30;99.90;;;;;;5043313;28;20045;-66
2023/10/22 01:03:05;;;;;;;1999.90;999.90;;;13.30;99.90;;;;;;5054847;28;20540;-66
2023/10/22 01:05:34;;;;;;;1999.90;999.90;;;13.30;99.90;;;;;;5045660;28;20052;-66
2023/10/22 01:08:00;;;;;;;1999.90;999.90;;;13.30;99.90;;;;;;5046705;28;20041;-66
2023/10/22 01:10:26;;;;;;;1999.90;999.90;;;13.30;99.90;;;;;;5051024;28;20135;-66
2023/10/22 01:12:51;;;;;;;1999.90;999.90;;;13.20;99.90;;;;;;5039031;28;20489;-66
2023/10/22 01:15:17;;;;;;;1999.90;999.90;;;13.20;99.90;;;;;;5049003;28;20063;-66
2023/10/22 01:17:43;;;;;;;1999.90;999.90;;;13.20;99.90;;;;;;5023892;28;20037;-66
2023/10/22 01:20:09;;;;;;;1999.90;999.90;;;13.20;99.90;;;;;;5037791;28;20049;-67
2023/10/22 01:22:35;;;;;;;1999.90;999.90;;;13.10;99.90;;;;;;5049164;28;20083;-66
2023/10/22 01:25:01;;;;;;;1999.90;999.90;;;13.10;99.90;;;;;;5048445;28;20147;-66
2023/10/22 01:27:27;;;;;;;1999.90;999.90;;;13.00;99.90;;;;;;5047466;28;20090;-66
2023/10/22 01:29:52;;;;;;;1999.90;999.90;;;13.00;99.90;;;;;;5041626;28;20048;-67
2023/10/22 01:32:18;;;;;;;1999.90;999.90;;;13.00;99.90;;;;;;5043122;28;20045;-66
2023/10/22 01:34:43;;;;;;;1999.90;999.90;;;12.90;99.90;;;;;;5025853;28;20067;-66
2023/10/22 01:37:12;;;;;;;1999.90;999.90;;;12.80;99.90;;;;;;5040843;28;20051;-66
2023/10/22 01:39:37;;;;;;;1999.90;999.90;;;12.70;99.90;;;;;;5032037;28;20435;-66
2023/10/22 01:42:04;;;;;;;1999.90;999.90;;;12.70;99.90;;;;;;5060917;28;20467;-66
2023/10/22 01:44:29;;;;;;;1999.90;999.90;;;12.70;99.90;;;;;;5046705;28;20124;-67
2023/10/22 01:46:55;;;;;;;1999.90;999.90;;;12.60;99.90;;;;;;5036238;28;20132;-66
2023/10/22 01:49:21;;;;;;;1999.90;999.90;;;12.60;99.90;;;;;;5054492;28;20045;-66
2023/10/22 01:51:48;;;;;;;1999.90;999.90;;;12.50;99.90;;;;;;5049485;28;20034;-66
2023/10/22 01:54:13;;;;;;;1999.90;999.90;;;12.50;99.90;;;;;;5049153;28;20048;-67
2023/10/22 01:56:39;;;;;;;1999.90;999.90;;;12.40;99.90;;;;;;5048750;28;20444;-66
2023/10/22 01:59:05;;;;;;;1999.90;999.90;;;12.30;99.90;;;;;;5035702;28;20465;-66
2023/10/22 02:01:31;;;;;;;1999.90;999.90;;;12.20;99.90;;;;;;5047274;28;20596;-66
2023/10/22 02:03:57;;;;;;;1999.90;999.90;;;12.10;99.90;;;;;;5024402;28;20177;-66
2023/10/22 02:06:24;;;;;;;1999.90;999.90;;;12.10;99.90;;;;;;5043177;28;20036;-67
2023/10/22 02:08:49;;;;;;;1999.90;999.90;;;12.00;99.90;;;;;;5055522;28;20512;-67
2023/10/22 02:11:15;;;;;;;1999.90;999.90;;;12.00;99.90;;;;;;5026460;28;20052;-66
2023/10/22 02:13:41;;;;;;;1999.90;999.90;;;11.90;99.90;;;;;;5038931;28;20131;-66
2023/10/22 02:16:06;;;;;;;1999.90;999.90;;;11.90;99.90;;;;;;5055262;28;20165;-66
2023/10/22 02:18:32;;;;;;;1999.90;999.90;;;11.90;99.90;;;;;;5049209;28;20046;-67
2023/10/22 02:21:00;;;;;;;1999.90;999.90;;;11.90;99.90;;;;;;5047646;28;20044;-66
2023/10/22 02:23:27;;;;;;;1999.90;999.90;;;11.80;99.90;;;;;;5045436;28;20120;-66
2023/10/22 02:25:53;;;;;;;1999.90;999.90;;;11.80;99.90;;;;;;5043235;28;20136;-67
2023/10/22 02:28:18;;;;;;;1999.90;999.90;;;11.80;99.90;;;;;;5045993;28;20120;-66
2023/10/22 02:30:47;;;;;;;1999.90;999.90;;;11.80;99.90;;;;;;5041315;28;20037;-67
2023/10/22 02:33:13;;;;;;;1999.90;999.90;;;11.80;99.90;;;;;;5044292;28;20123;-67
2023/10/22 02:35:43;;;;;;;1999.90;999.90;;;11.70;99.90;;;;;;5046979;28;20072;-66
2023/10/22 02:38:17;;;;;;;1999.90;999.90;;;11.70;99.90;;;;;;5045530;28;20049;-66
2023/10/22 02:40:44;;;;;;;1999.90;999.90;;;11.80;99.90;;;;;;5045150;28;20493;-67
2023/10/22 02:43:11;;;;;;;1999.90;999.90;;;11.70;99.90;;;;;;5060593;28;20037;-67
2023/10/22 02:45:37;;;;;;;1999.90;999.90;;;11.70;99.90;;;;;;5034476;28;20037;-66
2023/10/22 02:48:03;;;;;;;1999.90;999.90;;;11.70;99.90;;;;;;5044557;28;20052;-67
2023/10/22 02:50:28;;;;;;;1999.90;999.90;;;11.80;99.90;;;;;;5038159;28;20041;-67
2023/10/22 02:52:55;;;;;;;1999.90;999.90;;;11.70;99.90;;;;;;5042551;28;20036;-67
2023/10/22 02:55:21;;;;;;;1999.90;999.90;;;11.80;99.90;;;;;;5045893;28;20048;-67
2023/10/22 02:57:47;;;;;;;1999.90;999.90;;;11.80;99.90;;;;;;5049498;28;20559;-66
2023/10/22 03:00:13;;;;;;;1999.90;999.90;;;11.80;99.90;;;;;;5044668;28;20528;-66
2023/10/22 03:02:40;;;;;;;1999.90;999.90;;;11.80;99.90;;;;;;5045807;28;20548;-67
2023/10/22 03:05:06;;;;;;;1999.90;999.90;;;11.80;99.90;;;;;;5038573;28;20052;-67
2023/10/22 03:07:32;;;;;;;1999.90;999.90;;;11.70;99.90;;;;;;5042129;28;20379;-66
2023/10/22 03:09:58;;;;;;;1999.90;999.90;;;11.70;99.90;;;;;;5049487;28;20116;-67
2023/10/22 03:12:24;;;;;;;1999.90;999.90;;;11.70;99.90;;;;;;5046105;28;20048;-67
2023/10/22 03:14:53;;;;;;;1999.90;999.90;;;11.70;99.90;;;;;;5045782;28;20036;-67
2023/10/22 03:17:19;;;;;;;1999.90;999.90;;;11.70;99.90;;;;;;5043507;28;20150;-67
2023/10/22 03:19:45;;;;;;;1999.90;999.90;;;11.70;99.90;;;;;;5022962;28;20045;-67
2023/10/22 03:22:11;;;;;;;1999.90;999.90;;;11.70;99.90;;;;;;5045786;28;20047;-67
2023/10/22 03:24:38;;;;;;;1999.90;999.90;;;11.70;99.90;;;;;;5046412;28;20040;-67
2023/10/22 03:27:04;;;;;;;1999.90;999.90;;;11.70;99.90;;;;;;5047332;28;20520;-67
2023/10/22 03:29:30;;;;;;;1999.90;999.90;;;11.70;99.90;;;;;;5044510;28;20072;-67
2023/10/22 03:31:56;;;;;;;1999.90;999.90;;;11.70;99.90;;;;;;5061558;28;20090;-67
2023/10/22 03:34:22;;;;;;;1999.90;999.90;;;11.70;99.90;;;;;;5043980;28;20044;-67
2023/10/22 03:36:47;;;;;;;1999.90;999.90;;;11.70;99.90;;;;;;5057359;28;20116;-67
2023/10/22 03:39:13;;;;;;;1999.90;999.90;;;11.70;99.90;;;;;;5037421;28;20029;-67
2023/10/22 03:41:40;;;;;;;1999.90;999.90;;;11.70;99.90;;;;;;5046309;28;20090;-68
2023/10/22 03:44:05;;;;;;;1999.90;999.90;;;11.70;99.90;;;;;;5044050;28;20087;-68
2023/10/22 03:46:32;;;;;;;1999.90;999.90;;;11.70;99.90;;;;;;5045424;28;20052;-67
2023/10/22 03:48:58;;;;;;;1999.90;999.90;;;11.70;99.90;;;;;;5058133;28;20378;-68
2023/10/22 03:51:24;;;;;;;1999.90;999.90;;;11.80;99.90;;;;;;5050646;28;20408;-67
2023/10/22 03:53:52;;;;;;;1999.90;999.90;;;11.70;99.90;;;;;;5039447;28;20036;-67
2023/10/22 03:56:18;;;;;;;1999.90;999.90;;;11.80;99.90;;;;;;5023426;28;20115;-67
2023/10/22 03:58:44;;;;;;;1999.90;999.90;;;11.80;99.90;;;;;;5046669;28;20036;-68
2023/10/22 04:01:09;;;;;;;1999.90;999.90;;;11.80;99.90;;;;;;5044251;28;20543;-67
2023/10/22 04:03:35;;;;;;;1999.90;999.90;;;11.80;99.90;;;;;;5025270;28;20087;-67
2023/10/22 04:06:01;;;;;;;1999.90;999.90;;;11.80;99.90;;;;;;5044456;28;20045;-67
2023/10/22 04:08:28;;;;;;;1999.90;999.90;;;11.80;99.90;;;;;;5048460;28;20049;-68
2023/10/22 04:10:54;;;;;;;1999.90;999.90;;;11.80;99.90;;;;;;5043623;28;20124;-68
2023/10/22 04:13:19;;;;;;;1999.90;999.90;;;11.80;99.90;;;;;;5028242;28;20143;-68
2023/10/22 04:15:45;;;;;;;1999.90;999.90;;;11.80;99.90;;;;;;5043250;28;20493;-68
2023/10/22 04:18:16;;;;;;;1999.90;999.90;;;11.80;99.90;;;;;;5045795;28;20048;-68
2023/10/22 04:20:42;;;;;;;1999.90;999.90;;;11.80;99.90;;;;;;5047088;28;20072;-68
2023/10/22 04:23:11;;;;;;;1999.90;999.90;;;11.80;99.90;;;;;;5046277;28;20068;-68
2023/10/22 04:25:39;;;;;;;1999.90;999.90;;;11.80;99.90;;;;;;5060665;28;20032;-68
2023/10/22 04:28:06;;;;;;;1999.90;999.90;;;11.90;99.90;;;;;;5028670;28;20374;-68
2023/10/22 04:30:34;;;;;;;1999.90;999.90;;;11.90;99.90;;;;;;5047734;28;20033;-68
2023/10/22 04:33:00;;;;;;;1999.90;999.90;;;11.90;99.90;;;;;;5027823;28;20124;-68
2023/10/22 04:35:25;;;;;;;1999.90;999.90;;;11.90;99.90;;;;;;5046029;28;20133;-68
2023/10/22 04:37:53;;;;;;;1999.90;999.90;;;11.90;99.90;;;;;;5046093;28;20045;-68
2023/10/22 04:40:19;;;;;;;1999.90;999.90;;;11.90;99.90;;;;;;5038781;28;20131;-68
2023/10/22 04:42:44;;;;;;;1999.90;999.90;;;11.90;99.90;;;;;;5038530;28;20124;-68
2023/10/22 04:45:10;;;;;;;1999.90;999.90;;;11.90;99.90;;;;;;5028889;28;20045;-68
2023/10/22 04:47:36;;;;;;;1999.90;999.90;;;11.90;99.90;;;;;;5046426;28;20409;-69
2023/10/22 04:50:02;;;;;;;1999.90;999.90;;;11.90;99.90;;;;;;5037642;28;20044;-69
2023/10/22 04:52:31;;;;;;;1999.90;999.90;;;11.90;99.90;;;;;;5035317;28;20037;-69
2023/10/22 04:54:57;;;;;;;1999.90;999.90;;;11.90;99.90;;;;;;5044411;28;20076;-68
2023/10/22 04:57:23;;;;;;;1999.90;999.90;;;12.00;99.90;;;;;;5025828;28;20547;-68
2023/10/22 04:59:49;;;;;;;1999.90;999.90;;;12.00;99.90;;;;;;5047586;28;20128;-68
2023/10/22 05:02:14;;;;;;;1999.90;999.90;;;12.00;99.90;;;;;;5036689;28;20041;-68
2023/10/22 05:04:40;;;;;;;1999.90;999.90;;;12.00;99.90;;;;;;5049533;28;20057;-69
2023/10/22 05:07:05;;;;;;;1999.90;999.90;;;12.00;99.90;;;;;;5049129;28;20048;-68
2023/10/22 05:09:33;;;;;;;1999.90;999.90;;;12.00;99.90;;;;;;5048693;28;20676;-68
2023/10/22 05:11:59;;;;;;;1999.90;999.90;;;12.00;99.90;;;;;;5048158;28;20049;-68
2023/10/22 05:14:24;;;;;;;1999.90;999.90;;;12.00;99.90;;;;;;5047135;28;20047;-68
2023/10/22 05:16:52;;;;;;;1999.90;999.90;;;12.10;99.90;;;;;;5032655;28;20040;-68
2023/10/22 05:19:17;;;;;;;1999.90;999.90;;;12.10;99.90;;;;;;5041752;28;20044;-68
2023/10/22 05:21:43;;;;;;;1999.90;999.90;;;12.10;99.90;;;;;;5047602;28;20044;-69
2023/10/22 05:24:09;;;;;;;1999.90;999.90;;;12.20;99.90;;;;;;5034604;28;20080;-68
2023/10/22 05:26:35;;;;;;;1999.90;999.90;;;12.20;99.90;;;;;;5044875;28;20055;-68
2023/10/22 05:29:01;;;;;;;1999.90;999.90;;;12.20;99.90;;;;;;5031223;28;20053;-68
2023/10/22 05:31:26;;;;;;;1999.90;999.90;;;12.20;99.90;;;;;;5049558;28;20047;-68
2023/10/22 05:33:52;;;;;;;1999.90;999.90;;;12.30;99.90;;;;;;5030667;28;20048;-68
2023/10/22 05:36:20;;;;;;;1999.90;999.90;;;12.30;99.90;;;;;;5048943;28;20504;-68
2023/10/22 05:38:47;;;;;;;1999.90;999.90;;;12.30;99.90;;;;;;5042062;28;20037;-68
2023/10/22 05:41:21;;;;;;;1999.90;999.90;;;12.30;99.90;;;;;;5047843;28;20052;-68
2023/10/22 05:43:47;;;;;;;1999.90;999.90;;;12.30;99.90;;;;;;5043846;28;20048;-68
2023/10/22 05:46:13;;;;;;;1999.90;999.90;;;12.30;99.90;;;;;;5048939;28;20037;-68
2023/10/22 05:48:39;;;;;;;1999.90;999.90;;;12.40;99.90;;;;;;5062794;28;20124;-68
2023/10/22 05:51:04;;;;;;;1999.90;999.90;;;12.40;99.90;;;;;;5030664;28;20493;-68
2023/10/22 05:53:30;;;;;;;1999.90;999.90;;;12.40;99.90;;;;;;5043533;28;20033;-68
2023/10/22 05:55:57;;;;;;;1999.90;999.90;;;12.40;99.90;;;;;;5031114;28;20053;-68
2023/10/22 05:58:26;;;;;;;1999.90;999.90;;;12.40;99.90;;;;;;5045962;28;20118;-68
2023/10/22 06:00:53;;;;;;;1999.90;999.90;;;12.50;99.90;;;;;;5049555;28;20082;-68
2023/10/22 06:03:19;;;;;;;1999.90;999.90;;;12.50;99.90;;;;;;5049506;28;20052;-68
2023/10/22 06:05:45;;;;;;;1999.90;999.90;;;12.50;99.90;;;;;;5028509;28;20037;-68
2023/10/22 06:08:11;;;;;;;1999.90;999.90;;;12.50;99.90;;;;;;5047911;28;20397;-68
2023/10/22 06:10:44;;;;;;;1999.90;999.90;;;12.50;99.90;;;;;;5040078;28;20040;-68
2023/10/22 06:13:11;;;;;;;1999.90;999.90;;;12.30;99.90;;;;;;5046762;28;20052;-68
2023/10/22 06:15:39;;;;;;;1999.90;999.90;;;12.20;99.90;;;;;;5043575;28;20044;-68
2023/10/22 06:18:05;;;;;;;1999.90;999.90;;;12.20;99.90;;;;;;5030141;28;20059;-67
2023/10/22 06:20:32;;;;;;;1999.90;999.90;;;12.10;99.90;;;;;;5024646;28;20382;-67
2023/10/22 06:22:57;;;;;;;1999.90;999.90;;;12.10;99.90;;;;;;5028021;28;20067;-67
2023/10/22 06:25:23;;;;;;;1999.90;999.90;;;12.00;99.90;;;;;;5045313;28;20040;-68
2023/10/22 06:27:50;;;;;;;1999.90;999.90;;;12.00;99.90;;;;;;5030106;28;20040;-68
2023/10/22 06:30:21;;;;;;;1999.90;999.90;;;12.00;99.90;;;;;;5047893;28;20076;-67
2023/10/22 06:32:50;;;;;;;1999.90;999.90;;;12.00;99.90;;;;;;5044714;28;20498;-67
2023/10/22 06:35:16;;;;;;;1999.90;999.90;;;12.00;99.90;;;;;;5058917;28;20037;-67
2023/10/22 06:37:41;;;;;;;1999.90;999.90;;;11.90;99.90;;;;;;5046718;28;20044;-68
2023/10/22 06:40:08;;;;;;;1999.90;999.90;;;11.90;99.90;;;;;;5048815;28;20497;-68
2023/10/22 06:42:33;;;;;;;1999.90;999.90;;;11.80;99.90;;;;;;5046348;28;20098;-68
2023/10/22 06:44:59;;;;;;;1999.90;999.90;;;11.80;99.90;;;;;;5044959;28;20502;-68
2023/10/22 06:47:25;;;;;;;1999.90;999.90;;;11.70;99.90;;;;;;5046528;28;20044;-68
2023/10/22 06:49:52;;;;;;;1999.90;999.90;;;11.70;99.90;;;;;;5031189;28;20044;-68
2023/10/22 06:52:18;;;;;;;1999.90;999.90;;;11.70;99.90;;;;;;5043938;28;20053;-67
2023/10/22 06:54:44;;;;;;;1999.90;999.90;;;11.70;99.90;;;;;;5046947;28;20110;-68
2023/10/22 06:57:09;;;;;;;1999.90;999.90;;;11.70;99.90;;;;;;5036815;28;20077;-68
2023/10/22 06:59:35;;;;;;;1999.90;999.90;;;11.60;99.90;;;;;;5046119;28;20037;-68
2023/10/22 07:02:01;;;;;;;1999.90;999.90;;;11.60;99.90;;;;;;5036848;28;20041;-68
2023/10/22 07:04:26;;;;;;;1999.90;999.90;;;11.70;99.90;;;;;;5058828;28;20052;-68
2023/10/22 07:06:52;;;;;;;1999.90;999.90;;;11.70;99.90;;;;;;5038681;28;20123;-68
2023/10/22 07:09:17;;;;;;;1999.90;999.90;;;11.70;99.90;;;;;;5045074;28;20045;-68
2023/10/22 07:11:43;;;;;;;1999.90;999.90;;;11.70;99.90;;;;;;5048047;28;20048;-67
2023/10/22 07:14:09;;;;;;;1999.90;999.90;;;11.60;99.90;;;;;;5035505;28;20143;-68
2023/10/22 07:16:34;;;;;;;1999.90;999.90;;;11.60;99.90;;;;;;5024592;28;20397;-68
2023/10/22 07:19:00;;;;;;;1999.90;999.90;;;11.60;99.90;;;;;;5029573;28;20520;-68
2023/10/22 07:21:26;;;;;;;1999.90;999.90;;;11.60;99.90;;;;;;5048996;28;20052;-68
2023/10/22 07:23:52;;;;;;;1999.90;999.90;;;11.60;99.90;;;;;;5040022;28;20041;-68
2023/10/22 07:26:17;;;;;;;1999.90;999.90;;;11.60;99.90;;;;;;5043362;28;20127;-67
2023/10/22 07:28:44;;;;;;;1999.90;999.90;;;11.60;99.90;;;;;;5029748;28;20489;-67
2023/10/22 07:31:11;;;;;;;1999.90;999.90;;;11.70;99.90;;;;;;5050629;28;20378;-67
2023/10/22 07:33:37;;;;;;;1999.90;999.90;;;11.70;99.90;;;;;;5032309;28;20041;-68
2023/10/22 07:36:07;;;;;;;1999.90;999.90;;;11.70;99.90;;;;;;5040617;28;20044;-68
2023/10/22 07:38:33;;;;;;;1999.90;999.90;;;11.70;99.90;;;;;;5026695;28;20044;-68
2023/10/22 07:40:59;;;;;;;1999.90;999.90;;;11.70;99.90;;;;;;5038472;28;20049;-68
2023/10/22 07:43:27;;;;;;;1999.90;999.90;;;11.70;99.90;;;;;;5040856;28;20091;-68
2023/10/22 07:45:53;;;;;;;1999.90;999.90;;;11.80;99.90;;;;;;5032851;28;20040;-68
2023/10/22 07:48:19;;;;;;;1999.90;999.90;;;11.80;99.90;;;;;;5044604;28;20393;-68
2023/10/22 07:50:45;;;;;;;1999.90;999.90;;;11.80;99.90;;;;;;5054241;28;20511;-68
2023/10/22 07:53:10;;;;;;;1999.90;999.90;;;11.70;99.90;;;;;;5033766;28;20128;-68
2023/10/22 07:55:37;;;;;;;1999.90;999.90;;;11.70;99.90;;;;;;5045771;28;20060;-68
2023/10/22 07:58:03;;;;;;;1999.90;999.90;;;11.70;99.90;;;;;;5029653;28;20040;-68
2023/10/22 08:00:29;;;;;;;1999.90;999.90;;;11.70;99.90;;;;;;5039159;28;20087;-68
2023/10/22 08:02:56;;;;;;;1999.90;999.90;;;11.70;99.90;;;;;;5029972;28;20041;-68
2023/10/22 08:05:22;;;;;;;1999.90;999.90;;;11.80;99.90;;;;;;5060326;28;20048;-68
2023/10/22 08:07:48;;;;;;;1999.90;999.90;;;11.80;99.90;;;;;;5046891;28;20151;-68
2023/10/22 08:10:14;;;;;;;1999.90;999.90;;;11.80;99.90;;;;;;5039660;28;20124;-68
2023/10/22 08:12:40;;;;;;;1999.90;999.90;;;11.80;99.90;;;;;;5038433;28;20114;-68
2023/10/22 08:15:06;;;;;;;1999.90;999.90;;;11.90;99.90;;;;;;5042235;28;20046;-68
2023/10/22 08:17:32;;;;;;;1999.90;999.90;;;11.90;99.90;;;;;;5040656;28;20037;-68
2023/10/22 08:19:57;;;;;;;1999.90;999.90;;;11.90;99.90;;;;;;5042641;28;20489;-68
2023/10/22 08:22:23;;;;;;;1999.90;999.90;;;12.00;99.90;;;;;;5040508;28;20041;-68
2023/10/22 08:24:49;;;;;;;1999.90;999.90;;;12.00;99.90;;;;;;5038057;28;20397;-69
2023/10/22 08:27:17;;;;;;;1999.90;999.90;;;12.10;99.90;;;;;;5026838;28;20044;-69
2023/10/22 08:29:43;;;;;;;1999.90;999.90;;;12.10;99.90;;;;;;5036400;28;20037;-68
2023/10/22 08:32:09;;;;;;;1999.90;999.90;;;12.20;99.90;;;;;;5040426;28;20041;-68
2023/10/22 08:34:34;;;;;;;1999.90;999.90;;;12.20;99.90;;;;;;5042133;28;20145;-69
2023/10/22 08:37:00;;;;;;;1999.90;999.90;;;12.30;99.90;;;;;;5043077;28;20048;-69
2023/10/22 08:39:26;;;;;;;1999.90;999.90;;;12.30;99.90;;;;;;5023181;28;20076;-68
2023/10/22 08:42:11;;;;;;;1999.90;999.90;;;12.30;99.90;;;;;;5030669;28;20059;-68
2023/10/22 08:44:45;;;;;;;1999.90;999.90;;;12.40;99.90;;;;;;5049242;28;20052;-68
2023/10/22 08:47:11;;;;;;;1999.90;999.90;;;12.50;99.90;;;;;;5043914;28;20043;-68
2023/10/22 08:49:40;;;;;;;1999.90;999.90;;;12.50;99.90;;;;;;5022766;28;20033;-68
2023/10/22 08:52:08;;;;;;;1999.90;999.90;;;12.60;99.90;;;;;;5052068;28;20131;-68
2023/10/22 08:54:34;;;;;;;1999.90;999.90;;;12.60;99.90;;;;;;5047838;28;20065;-67
2023/10/22 08:57:01;;;;;;;1999.90;999.90;;;12.70;99.90;;;;;;5047143;28;20075;-69
2023/10/22 08:59:27;;;;;;;1999.90;999.90;;;12.70;99.90;;;;;;5043460;28;20048;-68
2023/10/22 09:01:53;;;;;;;1999.90;999.90;;;12.70;99.90;;;;;;5049914;28;20040;-68
2023/10/22 09:04:19;;;;;;;1999.90;999.90;;;12.80;99.90;;;;;;5028952;28;20519;-68
2023/10/22 09:06:45;;;;;;;1999.90;999.90;;;12.80;99.90;;;;;;5048934;28;20052;-67
2023/10/22 09:09:32;;;;;;;1999.90;999.90;;;12.80;99.90;;;;;;5037764;28;20071;-68
2023/10/22 09:11:58;;;;;;;1999.90;999.90;;;12.80;99.90;;;;;;5048873;28;20144;-68
2023/10/22 09:14:24;;;;;;;1999.90;999.90;;;12.80;99.90;;;;;;5037581;28;20052;-68
2023/10/22 09:16:50;;;;;;;1999.90;999.90;;;12.80;99.90;;;;;;5040316;28;20619;-68
2023/10/22 09:19:36;;;;;;;1999.90;999.90;;;12.80;99.90;;;;;;5041789;28;20083;-68
2023/10/22 09:22:05;;;;;;;1999.90;999.90;;;12.90;99.90;;;;;;5037534;28;20040;-68
2023/10/22 09:24:33;;;;;;;1999.90;999.90;;;12.90;99.90;;;;;;5037632;28;20041;-68
2023/10/22 09:26:59;;;;;;;1999.90;999.90;;;13.00;99.90;;;;;;5053875;28;20100;-68
2023/10/22 09:29:26;;;;;;;1999.90;999.90;;;13.00;99.90;;;;;;5043720;28;20053;-68
2023/10/22 09:31:55;;;;;;;1999.90;999.90;;;13.00;99.90;;;;;;5038165;28;20041;-67
2023/10/22 09:34:30;;;;;;;1999.90;999.90;;;13.20;99.90;;;;;;5034348;28;20064;-68
2023/10/22 09:36:56;;;;;;;1999.90;999.90;;;13.50;99.90;;;;;;5036958;28;20048;-68
2023/10/22 09:39:39;;;;;;;1999.90;999.90;;;13.80;99.90;;;;;;5052469;28;20044;-68
2023/10/22 09:42:06;;;;;;;1999.90;999.90;;;13.90;99.90;;;;;;5032597;28;20051;-68
2023/10/22 09:44:33;;;;;;;1999.90;999.90;;;14.00;99.90;;;;;;5046878;28;20076;-68
2023/10/22 09:47:06;;;;;;;1999.90;999.90;;;14.10;99.90;;;;;;5017593;28;20057;-69
2023/10/22 09:49:35;;;;;;;1999.90;999.90;;;14.20;99.90;;;;;;5030381;28;20075;-68
2023/10/22 09:52:08;;;;;;;1999.90;999.90;;;14.20;99.90;;;;;;5041823;28;20045;-68
2023/10/22 09:54:39;;;;;;;1999.90;999.90;;;14.10;99.90;;;;;;5056102;28;20056;-68
2023/10/22 09:57:13;;;;;;;1999.90;999.90;;;14.20;99.90;;;;;;5047916;28;20048;-68
2023/10/22 09:59:40;;;;;;;1999.90;999.90;;;14.10;99.90;;;;;;5045861;28;20052;-68
2023/10/22 10:02:11;;;;;;;1999.90;999.90;;;13.90;99.90;;;;;;5048154;28;20033;-69
2023/10/22 10:04:40;;;;;;;1999.90;999.90;;;13.90;99.90;;;;;;5031429;28;20551;-68
2023/10/22 10:07:06;;;;;;;1999.90;999.90;;;14.00;99.90;;;;;;5036424;28;20037;-67
2023/10/22 10:09:33;;;;;;;1999.90;999.90;;;14.10;99.90;;;;;;5045087;28;20099;-68
2023/10/22 10:12:02;;;;;;;1999.90;999.90;;;14.20;99.90;;;;;;5043568;28;20059;-67
2023/10/22 10:14:44;;;;;;;1999.90;999.90;;;14.30;99.90;;;;;;5044930;28;20049;-67
2023/10/22 10:17:11;;;;;;;1999.90;999.90;;;14.70;99.90;;;;;;5049004;28;20087;-68
2023/10/22 10:19:37;;;;;;;1999.90;999.90;;;14.90;99.90;;;;;;5061186;28;20037;-68
2023/10/22 10:22:03;;;;;;;1999.90;999.90;;;14.80;99.90;;;;;;5048997;28;20037;-68
2023/10/22 10:24:30;;;;;;;1999.90;999.90;;;14.70;99.90;;;;;;5060103;28;20049;-68
2023/10/22 10:26:58;;;;;;;1999.90;999.90;;;14.80;99.90;;;;;;5047494;28;20049;-68
2023/10/22 10:29:32;;;;;;;1999.90;999.90;;;14.90;99.90;;;;;;5031580;28;20056;-68
2023/10/22 10:32:13;;;;;;;1999.90;999.90;;;15.00;99.90;;;;;;5047246;28;20061;-68
2023/10/22 10:34:40;;;;;;;1999.90;999.90;;;15.00;99.90;;;;;;5031415;28;20523;-69
2023/10/22 10:37:13;;;;;;;1999.90;999.90;;;15.10;99.90;;;;;;5025237;28;20409;-68
2023/10/22 10:39:42;;;;;;;1999.90;999.90;;;15.10;99.90;;;;;;5045192;28;20065;-67
2023/10/22 10:42:12;;;;;;;1999.90;999.90;;;15.10;99.90;;;;;;5048524;28;20424;-68
2023/10/22 10:44:59;;;;;;;1999.90;999.90;;;14.90;99.90;;;;;;5044595;28;20056;-68
2023/10/22 10:47:24;;;;;;;1999.90;999.90;;;14.70;99.90;;;;;;5031851;28;20056;-67
2023/10/22 10:50:16;;;;;;;1999.90;999.90;;;14.60;99.90;;;;;;5047710;28;20470;-67
2023/10/22 10:52:45;;;;;;;1999.90;999.90;;;14.40;99.90;;;;;;5041336;28;20564;-68
2023/10/22 10:55:27;;;;;;;1999.90;999.90;;;14.30;99.90;;;;;;5031317;28;20095;-67
2023/10/22 10:57:53;;;;;;;1999.90;999.90;;;14.30;99.90;;;;;;5045402;28;20045;-68
2023/10/22 11:00:28;;;;;;;1999.90;999.90;;;14.20;99.90;;;;;;5062490;28;20061;-68
2023/10/22 11:02:58;;;;;;;1999.90;999.90;;;14.20;99.90;;;;;;5046906;28;20047;-68
2023/10/22 11:05:35;;;;;;;1999.90;999.90;;;14.10;99.90;;;;;;5059406;28;20044;-68
2023/10/22 11:08:03;;;;;;;1999.90;999.90;;;14.10;99.90;;;;;;5031076;28;20128;-68
2023/10/22 11:10:29;;;;;;;1999.90;999.90;;;14.00;99.90;;;;;;5042835;28;20052;-68
2023/10/22 11:13:02;;;;;;;1999.90;999.90;;;14.00;99.90;;;;;;5030692;28;20040;-68
2023/10/22 11:15:35;;;;;;;1999.90;999.90;;;14.00;99.90;;;;;;5038608;28;20128;-68
2023/10/22 11:18:05;;;;;;;1999.90;999.90;;;14.00;99.90;;;;;;5051731;28;20182;-69
2023/10/22 11:20:32;;;;;;;1999.90;999.90;;;14.10;99.90;;;;;;5022041;28;20527;-69
2023/10/22 11:22:58;;;;;;;1999.90;999.90;;;14.10;99.90;;;;;;5031478;28;20461;-68
2023/10/22 11:25:25;;;;;;;1999.90;999.90;;;14.10;99.90;;;;;;5041647;28;20439;-68
2023/10/22 11:27:50;;;;;;;1999.90;999.90;;;14.10;99.90;;;;;;5047987;28;20094;-68
2023/10/22 11:30:36;;;;;;;1999.90;999.90;;;14.10;99.90;;;;;;5036888;28;20045;-69
2023/10/22 11:33:13;;;;;;;1999.90;999.90;;;14.00;99.90;;;;;;5042806;28;20470;-68
2023/10/22 11:35:38;;;;;;;1999.90;999.90;;;13.90;99.90;;;;;;5034809;28;20084;-69
2023/10/22 11:38:06;;;;;;;1999.90;999.90;;;13.90;99.90;;;;;;5039887;28;20072;-69
2023/10/22 11:40:39;;;;;;;1999.90;999.90;;;13.70;99.90;;;;;;5060137;28;20047;-67
2023/10/22 11:43:16;;;;;;;1999.90;999.90;;;13.50;99.90;;;;;;5036308;28;20045;-66
2023/10/22 11:45:58;;;;;;;1999.90;999.90;;;13.40;99.90;;;;;;5038180;28;20072;-66
2023/10/22 11:48:25;;;;;;;1999.90;999.90;;;13.40;99.90;;;;;;5051257;28;20044;-67
2023/10/22 11:51:00;;;;;;;1999.90;999.90;;;13.30;99.90;;;;;;5039659;28;20519;-66
2023/10/22 11:53:40;;;;;;;1999.90;999.90;;;13.30;99.90;;;;;;5038440;28;20049;-66
2023/10/22 11:56:05;;;;;;;1999.90;999.90;;;13.30;99.90;;;;;;5052245;28;20134;-66
2023/10/22 11:58:31;;;;;;;1999.90;999.90;;;13.30;99.90;;;;;;5038873;28;20139;-66
2023/10/22 12:00:56;;;;;;;1999.90;999.90;;;13.30;99.90;;;;;;5034027;28;20049;-67